Banner, Wyoming
Current Conditions -  °F | °C
As of 1:53 AM on Saturday 22 Nov 2014 (Local Time) from KSHR Reporting Station
Clear Clear  
Wind Chill: 25°   Ceiling: Unl
Heat Index: 25°   Visibility: 10mi
Dew Point: 19°   Wind: 0mph
Humidity: 78%   Direction: NA
Pressure: 29.57"   Gusts: NA
Location:  44.6°N, 106.87°W
Report Text: KSHR 220853Z AUTO 00000KT 10SM CLR M04/M07 A2957 RMK AO2 SLP033 T10391072 58032 TSNO
Loading
Personal Weather Stations






























Interactive Weather Map New forecast layout! Learn more

10-Day Weather Forecast

Advertisements
Track Severe Weather on mobile